Time;durP1;ratioP1;P1;durP2;ratioP2;P2;SDS_P1;SDS_P2;PMS_P1;PMS_P2;Temp;Humidity;BMP_temperature;BMP_pressure;BME280_temperature;BME280_humidity;BME280_pressure;Samples;Min_cycle;Max_cycle;Signal;HPM_P1;HPM_P2
2022/01/05 00:00:08;;;;;;;1.00;0.90;;;;;;;7.83;76.49;97965.97;343669;28;1647;-67
2022/01/05 00:00:20;;;;;;;1.10;0.85;;;;;;;7.78;76.43;97961.03;343766;28;1225;-67
2022/01/05 00:00:32;;;;;;;1.27;0.80;;;;;;;7.74;76.62;97964.66;343273;28;2318;-67
2022/01/05 00:00:45;;;;;;;1.23;0.90;;;;;;;7.76;76.72;97968.03;343581;28;2336;-67
2022/01/05 00:00:59;;;;;;;1.20;0.90;;;;;;;7.78;77.04;97961.03;343591;28;1306;-68
2022/01/05 00:01:12;;;;;;;1.05;0.88;;;;;;;7.75;76.95;97961.19;343482;28;1039;-67
2022/01/05 00:01:24;;;;;;;1.98;1.00;;;;;;;7.65;77.11;97959.97;343646;28;1054;-67
2022/01/05 00:01:37;;;;;;;2.45;1.10;;;;;;;7.64;77.60;97958.25;344012;28;1023;-68
2022/01/05 00:01:49;;;;;;;1.58;1.10;;;;;;;7.69;77.26;97964.91;343755;28;1015;-67
2022/01/05 00:02:02;;;;;;;2.00;1.17;;;;;;;7.72;77.38;97959.56;341496;28;3496;-67
2022/01/05 00:02:14;;;;;;;2.55;1.20;;;;;;;7.70;77.33;97960.56;343203;28;2491;-67
2022/01/05 00:02:26;;;;;;;3.00;1.20;;;;;;;7.69;77.35;97956.31;342284;28;1882;-68
2022/01/05 00:02:41;;;;;;;2.30;1.30;;;;;;;7.72;77.25;97956.97;343429;28;2803;-67
2022/01/05 00:02:54;;;;;;;2.13;1.40;;;;;;;7.76;76.91;97953.34;343894;28;1274;-66
2022/01/05 00:03:07;;;;;;;2.22;1.40;;;;;;;7.72;76.79;97953.56;342527;28;1035;-67
2022/01/05 00:03:19;;;;;;;1.92;1.23;;;;;;;7.76;76.82;97952.50;343389;28;2123;-67
2022/01/05 00:03:31;;;;;;;2.25;1.33;;;;;;;7.77;77.40;97951.59;343524;28;1307;-68
2022/01/05 00:03:43;;;;;;;2.20;1.30;;;;;;;7.67;77.24;97951.22;343352;28;1085;-68
2022/01/05 00:03:55;;;;;;;2.13;1.20;;;;;;;7.69;77.00;97956.31;343954;28;1026;-68
2022/01/05 00:04:16;;;;;;;2.45;1.33;;;;;;;7.67;76.95;97947.78;342423;28;1051;-69
2022/01/05 00:04:28;;;;;;;2.13;1.42;;;;;;;7.68;77.75;97954.63;342171;28;1072;-67
2022/01/05 00:04:40;;;;;;;1.42;1.20;;;;;;;7.64;77.16;97953.94;342154;28;1038;-67
2022/01/05 00:04:53;;;;;;;1.27;0.90;;;;;;;7.69;77.08;97951.97;342066;28;1067;-67
2022/01/05 00:05:06;;;;;;;1.60;1.00;;;;;;;7.68;77.02;97952.88;342888;28;1556;-67
2022/01/05 00:05:18;;;;;;;2.35;1.33;;;;;;;7.69;77.45;97951.13;343215;28;2755;-67
2022/01/05 00:05:33;;;;;;;2.83;1.30;;;;;;;7.67;77.35;97945.19;343265;28;2026;-67
2022/01/05 00:05:45;;;;;;;2.17;1.00;;;;;;;7.68;77.03;97949.44;343523;28;1064;-69
2022/01/05 00:05:57;;;;;;;1.38;0.88;;;;;;;7.73;76.77;97947.50;343367;28;2620;-67
2022/01/05 00:06:09;;;;;;;1.30;1.00;;;;;;;7.76;76.59;97947.31;343317;28;2179;-69
2022/01/05 00:06:21;;;;;;;1.40;1.08;;;;;;;7.72;76.67;97953.56;344795;28;1270;-68
2022/01/05 00:06:33;;;;;;;1.70;1.13;;;;;;;7.64;77.42;97947.91;342713;28;1632;-69
2022/01/05 00:06:45;;;;;;;1.95;1.13;;;;;;;7.64;77.46;97953.09;342311;28;1843;-69
2022/01/05 00:06:57;;;;;;;2.33;1.30;;;;;;;7.64;77.33;97951.34;342598;28;2206;-69
2022/01/05 00:07:11;;;;;;;2.50;1.40;;;;;;;7.67;77.45;97947.78;343811;28;1289;-68
2022/01/05 00:07:23;;;;;;;2.38;1.45;;;;;;;7.69;77.59;97951.13;343667;28;1086;-68
2022/01/05 00:07:36;;;;;;;2.22;1.38;;;;;;;7.76;77.05;97944.75;343982;28;1062;-68
2022/01/05 00:07:48;;;;;;;1.90;1.27;;;;;;;7.72;76.92;97944.03;343883;28;1058;-67
2022/01/05 00:08:00;;;;;;;1.58;1.13;;;;;;;7.75;76.85;97950.84;343449;28;4059;-69
2022/01/05 00:08:14;;;;;;;1.85;1.10;;;;;;;7.76;76.94;97939.56;343289;28;2593;-68
2022/01/05 00:08:26;;;;;;;2.25;1.35;;;;;;;7.80;76.45;97943.69;343724;28;1289;-68
2022/01/05 00:08:38;;;;;;;2.40;1.40;;;;;;;7.83;76.92;97938.38;343792;28;1027;-68
2022/01/05 00:08:50;;;;;;;2.20;1.40;;;;;;;7.76;76.73;97942.16;343851;28;1248;-67
2022/01/05 00:09:02;;;;;;;2.03;1.40;;;;;;;7.82;77.21;97941.84;343651;28;1365;-68
2022/01/05 00:09:14;;;;;;;2.13;1.50;;;;;;;7.82;77.19;97941.03;343651;28;2021;-68
2022/01/05 00:09:26;;;;;;;2.83;1.70;;;;;;;7.77;76.96;97936.91;342938;28;2005;-67
2022/01/05 00:09:38;;;;;;;3.60;2.00;;;;;;;7.76;77.18;97937.81;342952;28;1792;-69
2022/01/05 00:09:59;;;;;;;3.13;2.00;;;;;;;7.81;76.80;97937.59;343640;28;1495;-67
2022/01/05 00:10:11;;;;;;;2.83;1.98;;;;;;;7.83;77.06;97933.19;342495;28;1133;-67
2022/01/05 00:10:23;;;;;;;3.55;1.67;;;;;;;7.79;76.39;97940.25;342641;28;1059;-68
2022/01/05 00:10:35;;;;;;;3.13;1.48;;;;;;;7.72;77.47;97936.28;342838;28;2400;-68
2022/01/05 00:10:47;;;;;;;2.78;1.40;;;;;;;7.71;76.67;97937.22;343434;28;2178;-67
2022/01/05 00:10:59;;;;;;;2.60;1.70;;;;;;;7.76;76.68;97936.97;343475;28;1688;-68
2022/01/05 00:11:11;;;;;;;2.50;1.60;;;;;;;7.64;77.18;97940.16;343592;28;1023;-67
2022/01/05 00:11:24;;;;;;;2.20;1.38;;;;;;;7.57;76.90;97937.88;343708;28;1074;-68
2022/01/05 00:11:36;;;;;;;1.95;1.00;;;;;;;7.58;77.39;97934.38;343680;28;1195;-68
2022/01/05 00:11:48;;;;;;;1.73;1.00;;;;;;;7.64;77.38;97937.59;343838;28;1055;-67
2022/01/05 00:12:00;;;;;;;1.95;1.25;;;;;;;7.71;76.72;97938.97;343625;28;1357;-67
2022/01/05 00:12:12;;;;;;;2.30;1.45;;;;;;;7.75;76.81;97935.31;343375;28;1922;-67
2022/01/05 00:12:25;;;;;;;2.50;1.50;;;;;;;7.79;76.95;97931.69;344001;28;1323;-67
2022/01/05 00:12:37;;;;;;;2.50;1.60;;;;;;;7.77;76.88;97933.50;343751;28;1245;-67
2022/01/05 00:12:49;;;;;;;3.38;1.80;;;;;;;7.82;77.16;97936.69;343347;28;2459;-69
2022/01/05 00:13:01;;;;;;;3.03;1.60;;;;;;;7.85;77.14;97933.97;342616;28;1697;-68
2022/01/05 00:13:13;;;;;;;2.80;1.70;;;;;;;7.86;77.27;97930.44;343083;28;1251;-68
2022/01/05 00:13:25;;;;;;;2.70;1.77;;;;;;;7.88;77.21;97933.78;344158;28;1237;-69
2022/01/05 00:13:37;;;;;;;3.25;1.80;;;;;;;7.90;77.35;97926.78;343720;28;1258;-68
2022/01/05 00:13:50;;;;;;;3.25;1.70;;;;;;;7.87;77.09;97929.53;343955;28;1177;-67
2022/01/05 00:14:02;;;;;;;2.88;1.60;;;;;;;7.84;76.98;97929.69;343483;28;1581;-68
2022/01/05 00:14:14;;;;;;;2.63;1.60;;;;;;;7.85;76.89;97926.19;343582;28;1873;-67
2022/01/05 00:14:26;;;;;;;3.35;1.80;;;;;;;7.83;77.35;97928.03;342288;28;1333;-67
2022/01/05 00:14:38;;;;;;;3.95;1.73;;;;;;;7.85;76.65;97931.38;342468;28;1043;-67
2022/01/05 00:14:50;;;;;;;3.72;1.70;;;;;;;7.84;76.59;97934.84;342547;28;1056;-67
2022/01/05 00:15:03;;;;;;;3.53;1.70;;;;;;;7.85;76.56;97936.53;343046;28;1190;-67
2022/01/05 00:15:19;;;;;;;3.25;1.90;;;;;;;7.78;77.20;97928.22;343993;28;1072;-68
2022/01/05 00:15:31;;;;;;;3.72;2.10;;;;;;;7.81;76.82;97932.44;344007;28;979;-67
2022/01/05 00:15:43;;;;;;;3.20;1.95;;;;;;;7.81;76.91;97929.84;343521;28;2426;-69
2022/01/05 00:15:55;;;;;;;2.45;1.75;;;;;;;7.74;77.07;97920.69;343748;28;1832;-67
2022/01/05 00:16:07;;;;;;;2.47;1.83;;;;;;;7.77;77.65;97928.31;344237;28;2205;-67
2022/01/05 00:16:19;;;;;;;2.67;1.98;;;;;;;7.82;77.31;97931.50;344251;28;2035;-67
2022/01/05 00:16:31;;;;;;;2.70;1.83;;;;;;;7.85;76.87;97933.97;345070;28;1041;-67
2022/01/05 00:16:43;;;;;;;2.72;1.75;;;;;;;7.83;77.00;97928.03;344484;28;1836;-68
2022/01/05 00:16:55;;;;;;;2.67;1.80;;;;;;;7.87;76.89;97934.72;345049;28;1131;-68
2022/01/05 00:17:07;;;;;;;2.97;2.00;;;;;;;7.68;77.73;97933.94;343774;28;1063;-67
2022/01/05 00:17:19;;;;;;;3.55;2.25;;;;;;;7.69;77.74;97933.03;343519;28;1017;-67
2022/01/05 00:17:32;;;;;;;3.60;2.40;;;;;;;7.71;77.72;97936.38;343553;28;1197;-67
2022/01/05 00:17:44;;;;;;;3.33;2.35;;;;;;;7.70;77.57;97937.28;343347;28;2437;-67
2022/01/05 00:17:55;;;;;;;3.28;2.30;;;;;;;7.75;77.69;97940.50;344933;28;2023;-67
2022/01/05 00:18:07;;;;;;;3.90;2.33;;;;;;;7.77;77.49;97938.66;343159;28;1059;-69
2022/01/05 00:18:19;;;;;;;3.60;2.30;;;;;;;7.82;76.87;97936.69;342476;28;1011;-68
2022/01/05 00:18:32;;;;;;;3.08;2.00;;;;;;;7.85;77.21;97933.97;342433;28;1155;-67
2022/01/05 00:18:44;;;;;;;3.58;2.10;;;;;;;7.88;76.90;97936.38;342211;28;2420;-70
2022/01/05 00:18:56;;;;;;;4.07;2.05;;;;;;;7.91;76.77;97936.25;342071;28;2418;-68
2022/01/05 00:19:08;;;;;;;4.40;2.25;;;;;;;7.91;76.72;97930.25;343664;28;1666;-68
2022/01/05 00:19:20;;;;;;;4.10;2.35;;;;;;;7.94;77.32;97933.50;343631;28;1315;-69
2022/01/05 00:19:34;;;;;;;4.10;2.40;;;;;;;7.94;76.87;97925.72;343825;28;1983;-68
2022/01/05 00:19:47;;;;;;;4.60;2.90;;;;;;;7.93;77.02;97931.84;344892;28;1156;-67
2022/01/05 00:19:59;;;;;;;4.80;3.10;;;;;;;7.92;77.03;97924.97;341679;28;1874;-68
2022/01/05 00:20:12;;;;;;;4.30;3.00;;;;;;;7.90;77.09;97931.13;341895;28;3794;-68
2022/01/05 00:20:24;;;;;;;4.15;2.90;;;;;;;7.85;77.56;97931.38;340922;29;1011;-68
2022/01/05 00:20:36;;;;;;;4.38;2.90;;;;;;;7.91;76.85;97931.06;340864;29;1051;-67
2022/01/05 00:20:49;;;;;;;4.45;2.85;;;;;;;7.94;77.10;97933.50;340934;28;1730;-68
2022/01/05 00:21:03;;;;;;;4.10;2.75;;;;;;;7.96;76.46;97926.47;342395;28;1430;-67
2022/01/05 00:21:15;;;;;;;4.65;3.00;;;;;;;8.00;76.33;97928.00;341650;28;2473;-67
2022/01/05 00:21:27;;;;;;;4.78;3.10;;;;;;;7.87;76.98;97929.53;343343;28;1270;-67
2022/01/05 00:21:40;;;;;;;4.03;2.83;;;;;;;7.86;76.54;97932.19;343638;28;1273;-67
2022/01/05 00:21:52;;;;;;;3.38;2.47;;;;;;;7.86;76.97;97930.44;343003;28;2393;-68
2022/01/05 00:22:04;;;;;;;3.67;2.65;;;;;;;7.83;77.29;97930.59;343612;28;2110;-68
2022/01/05 00:22:16;;;;;;;4.05;2.72;;;;;;;7.84;77.41;97929.69;343843;28;1134;-67
2022/01/05 00:22:28;;;;;;;3.80;2.70;;;;;;;7.86;77.50;97935.63;342566;28;2399;-68
2022/01/05 00:22:40;;;;;;;3.35;2.53;;;;;;;7.88;77.88;97928.63;343562;28;1218;-67
2022/01/05 00:22:52;;;;;;;3.28;2.50;;;;;;;7.93;77.41;97924.06;343848;28;1088;-67
2022/01/05 00:23:04;;;;;;;3.88;2.75;;;;;;;7.97;77.58;97925.59;343186;28;2107;-68
2022/01/05 00:23:16;;;;;;;4.72;3.55;;;;;;;7.94;77.01;97936.06;342409;28;1057;-67
2022/01/05 00:23:29;;;;;;;5.20;3.92;;;;;;;7.96;76.88;97929.06;342446;28;1106;-68
2022/01/05 00:23:41;;;;;;;5.88;4.00;;;;;;;7.95;77.37;97927.41;342452;28;1020;-67
2022/01/05 00:23:53;;;;;;;5.45;3.83;;;;;;;7.93;77.15;97918.91;342484;28;1039;-68
2022/01/05 00:24:05;;;;;;;5.22;3.22;;;;;;;7.95;77.36;97921.41;343458;28;1571;-67
2022/01/05 00:24:17;;;;;;;3.85;2.58;;;;;;;7.95;77.48;97927.41;343716;28;1054;-67
2022/01/05 00:24:29;;;;;;;3.50;2.22;;;;;;;7.94;77.63;97936.06;343197;28;2360;-67
2022/01/05 00:24:41;;;;;;;3.80;2.30;;;;;;;7.94;77.52;97919.72;343830;28;2222;-67
2022/01/05 00:24:53;;;;;;;3.60;2.30;;;;;;;7.96;77.75;97928.25;343881;28;1114;-67
2022/01/05 00:25:06;;;;;;;3.25;2.20;;;;;;;7.89;77.44;97930.31;342696;28;2063;-69
2022/01/05 00:25:18;;;;;;;2.80;1.90;;;;;;;7.88;78.01;97931.22;343810;28;1226;-67
2022/01/05 00:25:30;;;;;;;3.13;2.03;;;;;;;7.86;77.77;97932.19;342982;28;1696;-68
2022/01/05 00:25:42;;;;;;;2.97;2.45;;;;;;;7.85;77.89;97928.78;343772;28;2586;-68
2022/01/05 00:25:54;;;;;;;3.42;2.75;;;;;;;7.88;78.28;97931.22;343947;28;1074;-67
2022/01/05 00:26:06;;;;;;;3.10;2.80;;;;;;;7.91;77.77;97925.06;342502;28;1059;-68
2022/01/05 00:26:18;;;;;;;3.03;2.42;;;;;;;7.95;77.54;97927.41;343104;28;2109;-68
2022/01/05 00:26:34;;;;;;;3.55;2.28;;;;;;;7.96;77.70;97934.25;343922;28;1067;-67
2022/01/05 00:26:46;;;;;;;3.63;2.25;;;;;;;7.95;77.60;97934.34;343859;28;1034;-67
2022/01/05 00:26:58;;;;;;;2.65;2.00;;;;;;;7.96;77.05;97928.25;343849;28;1638;-67
2022/01/05 00:27:10;;;;;;;2.55;1.85;;;;;;;7.99;77.20;97928.94;343816;28;1058;-68
2022/01/05 00:27:22;;;;;;;2.42;1.88;;;;;;;8.00;77.04;97930.59;344011;28;1058;-68
2022/01/05 00:27:34;;;;;;;2.60;1.90;;;;;;;8.02;77.35;97933.13;343268;28;2385;-68
2022/01/05 00:27:46;;;;;;;2.78;2.10;;;;;;;8.05;76.73;97929.53;344019;28;1058;-68
2022/01/05 00:27:58;;;;;;;3.30;2.00;;;;;;;8.05;76.76;97934.69;343738;28;1629;-68
2022/01/05 00:28:10;;;;;;;3.30;1.95;;;;;;;8.00;76.79;97934.94;343890;28;1260;-68
2022/01/05 00:28:22;;;;;;;2.85;2.20;;;;;;;8.02;76.87;97934.88;343975;28;1011;-68
2022/01/05 00:28:34;;;;;;;2.53;2.20;;;;;;;8.01;77.21;97926.28;343936;28;1125;-68
2022/01/05 00:28:46;;;;;;;2.60;1.98;;;;;;;8.05;76.84;97930.38;343062;28;2282;-68
2022/01/05 00:28:58;;;;;;;2.40;1.70;;;;;;;8.09;77.04;97931.91;342351;28;2155;-69
2022/01/05 00:29:11;;;;;;;2.47;1.83;;;;;;;8.12;76.47;97928.31;343216;28;1691;-68
2022/01/05 00:29:23;;;;;;;3.30;2.42;;;;;;;8.10;76.37;97930.97;343485;28;1091;-68
2022/01/05 00:29:35;;;;;;;4.50;3.72;;;;;;;8.10;77.08;97930.16;343714;28;1197;-67
2022/01/05 00:29:48;;;;;;;4.68;4.00;;;;;;;8.08;76.88;97925.03;343456;28;1480;-67
2022/01/05 00:30:00;;;;;;;3.85;3.35;;;;;;;8.11;76.59;97927.50;343435;28;1661;-67
2022/01/05 00:30:12;;;;;;;3.50;2.63;;;;;;;8.12;76.77;97928.31;343422;28;1590;-67
2022/01/05 00:30:24;;;;;;;3.67;2.63;;;;;;;8.14;76.90;97923.91;343773;28;1175;-67
2022/01/05 00:30:36;;;;;;;3.28;2.58;;;;;;;8.14;76.55;97926.50;343545;28;1161;-68
2022/01/05 00:30:48;;;;;;;3.17;2.67;;;;;;;8.13;76.47;97935.16;343177;28;1606;-67
2022/01/05 00:31:00;;;;;;;3.38;3.08;;;;;;;7.99;76.75;97931.53;343282;28;2290;-67
2022/01/05 00:31:12;;;;;;;2.95;2.65;;;;;;;8.04;76.69;97933.03;341426;28;2392;-67
2022/01/05 00:31:25;;;;;;;3.38;1.98;;;;;;;8.01;76.69;97926.28;342764;28;1196;-67
2022/01/05 00:31:37;;;;;;;3.17;1.60;;;;;;;8.03;76.73;97927.03;343478;28;1092;-67
2022/01/05 00:31:52;;;;;;;2.83;2.08;;;;;;;8.07;76.47;97925.97;343577;28;1091;-67
2022/01/05 00:32:08;;;;;;;3.47;3.17;;;;;;;8.07;76.69;97927.69;340903;29;1201;-68
2022/01/05 00:32:21;;;;;;;3.83;3.42;;;;;;;7.97;76.82;97923.00;340785;28;2465;-69
2022/01/05 00:32:33;;;;;;;2.95;2.65;;;;;;;7.96;76.74;97929.06;341837;28;1256;-69
2022/01/05 00:32:45;;;;;;;3.25;2.95;;;;;;;7.98;77.05;97929.00;340680;28;2325;-68
2022/01/05 00:32:58;;;;;;;4.50;4.13;;;;;;;8.00;77.22;97928.00;341807;28;1701;-68
2022/01/05 00:33:09;;;;;;;4.35;4.03;;;;;;;7.99;76.74;97928.94;340741;29;2378;-69
2022/01/05 00:33:22;;;;;;;2.67;2.42;;;;;;;8.02;77.48;97927.09;342599;28;1937;-68
2022/01/05 00:33:34;;;;;;;2.50;1.92;;;;;;;8.04;77.68;97925.28;343471;28;1055;-68
2022/01/05 00:33:46;;;;;;;2.83;2.00;;;;;;;8.00;76.92;97925.41;343456;28;1023;-67
2022/01/05 00:33:58;;;;;;;2.65;1.75;;;;;;;7.95;77.50;97922.25;342948;28;1518;-67
2022/01/05 00:34:11;;;;;;;3.05;2.35;;;;;;;7.95;77.40;97927.41;342235;28;1982;-67
2022/01/05 00:34:23;;;;;;;4.22;3.88;;;;;;;7.92;77.03;97922.38;341924;28;2539;-67
2022/01/05 00:34:36;;;;;;;5.45;5.05;;;;;;;7.92;77.22;97932.72;343437;28;1240;-68
2022/01/05 00:34:48;;;;;;;3.63;3.33;;;;;;;7.82;77.44;97926.34;343879;28;1325;-67
2022/01/05 00:35:00;;;;;;;3.05;2.13;;;;;;;7.84;77.13;97927.09;343429;28;1631;-67
2022/01/05 00:35:12;;;;;;;3.50;2.05;;;;;;;7.88;77.34;97915.69;343828;28;1315;-68
2022/01/05 00:35:24;;;;;;;3.22;1.45;;;;;;;7.92;77.01;97924.97;343768;28;1062;-67
2022/01/05 00:35:36;;;;;;;2.65;1.15;;;;;;;7.91;77.19;97920.72;343784;28;1246;-67
2022/01/05 00:35:48;;;;;;;2.58;1.13;;;;;;;7.91;77.23;97925.06;343732;28;1054;-67
2022/01/05 00:36:00;;;;;;;3.10;1.63;;;;;;;7.94;76.58;97920.56;343114;28;2333;-68
2022/01/05 00:36:12;;;;;;;2.45;2.03;;;;;;;7.88;77.24;97915.69;343784;28;2368;-67
2022/01/05 00:36:24;;;;;;;2.05;1.75;;;;;;;7.89;76.80;97917.38;343068;28;2054;-67
2022/01/05 00:36:36;;;;;;;1.63;1.50;;;;;;;7.87;77.45;97921.78;343831;28;1324;-68
2022/01/05 00:36:48;;;;;;;1.30;1.20;;;;;;;7.92;77.35;97922.38;344093;28;1206;-67
2022/01/05 00:37:03;;;;;;;1.30;1.08;;;;;;;7.93;77.01;97918.91;343458;28;1570;-67
2022/01/05 00:37:15;;;;;;;1.60;0.90;;;;;;;7.97;76.85;97922.16;343928;28;965;-67
2022/01/05 00:37:27;;;;;;;1.70;0.88;;;;;;;7.91;77.58;97919.91;343845;28;1070;-67
2022/01/05 00:37:39;;;;;;;1.75;1.08;;;;;;;7.89;76.96;97919.97;343908;28;1070;-67
2022/01/05 00:37:51;;;;;;;2.10;1.38;;;;;;;7.93;77.33;97925.81;343976;28;1082;-67
2022/01/05 00:38:03;;;;;;;1.70;1.25;;;;;;;7.87;76.72;97924.38;343194;28;2111;-67
2022/01/05 00:38:15;;;;;;;1.25;1.15;;;;;;;7.83;77.33;97922.00;343209;28;1034;-67
2022/01/05 00:38:28;;;;;;;1.00;0.90;;;;;;;7.83;77.36;97928.03;343878;28;1300;-67
2022/01/05 00:38:40;;;;;;;0.98;0.77;;;;;;;7.85;76.94;97921.03;343922;28;1213;-67
2022/01/05 00:38:52;;;;;;;1.08;0.70;;;;;;;7.87;77.50;97924.38;344011;28;1755;-68
2022/01/05 00:39:04;;;;;;;0.98;0.80;;;;;;;7.89;77.63;97917.38;343033;28;2315;-67
2022/01/05 00:39:16;;;;;;;1.48;0.88;;;;;;;7.93;77.29;97923.25;343679;28;2017;-67
2022/01/05 00:39:28;;;;;;;1.63;0.85;;;;;;;7.97;77.69;97919.59;344123;28;1061;-67
2022/01/05 00:39:40;;;;;;;1.20;0.73;;;;;;;8.00;77.17;97920.25;343237;28;2441;-67
2022/01/05 00:39:52;;;;;;;1.02;0.75;;;;;;;8.03;77.14;97921.88;342375;28;1051;-67
2022/01/05 00:40:06;;;;;;;1.17;0.80;;;;;;;7.98;77.40;97919.50;342915;28;1846;-68
2022/01/05 00:40:18;;;;;;;1.88;0.80;;;;;;;7.99;77.12;97923.75;343183;28;2202;-67
2022/01/05 00:40:30;;;;;;;2.42;0.73;;;;;;;7.85;77.03;97927.94;343833;28;1082;-67
2022/01/05 00:40:42;;;;;;;2.40;0.70;;;;;;;7.81;76.89;97924.69;342683;28;1926;-67
2022/01/05 00:40:54;;;;;;;1.65;0.80;;;;;;;7.80;77.34;97929.00;342518;28;1086;-67
2022/01/05 00:41:06;;;;;;;1.98;0.80;;;;;;;7.78;76.96;97917.88;342485;28;1070;-67
2022/01/05 00:41:18;;;;;;;1.63;0.70;;;;;;;7.84;77.39;97924.50;342284;28;1208;-67
2022/01/05 00:41:30;;;;;;;1.98;0.75;;;;;;;7.77;77.02;97928.31;342208;28;1092;-67
2022/01/05 00:41:43;;;;;;;2.42;0.70;;;;;;;7.77;77.06;97923.16;342359;28;1087;-67
2022/01/05 00:41:55;;;;;;;1.73;0.60;;;;;;;7.78;77.58;97924.81;342156;28;1204;-68
2022/01/05 00:42:07;;;;;;;1.50;0.70;;;;;;;7.84;77.14;97924.50;342127;28;1335;-67
2022/01/05 00:42:19;;;;;;;1.17;0.80;;;;;;;7.91;77.23;97920.72;341978;28;1196;-68
2022/01/05 00:42:31;;;;;;;1.60;0.80;;;;;;;7.93;77.25;97916.31;342340;28;1059;-67
2022/01/05 00:42:46;;;;;;;1.88;0.80;;;;;;;7.91;77.26;97915.53;342300;28;2370;-67
2022/01/05 00:42:59;;;;;;;1.45;0.70;;;;;;;7.90;77.06;97919.03;342506;28;1592;-68
2022/01/05 00:43:14;;;;;;;1.52;0.60;;;;;;;7.90;77.08;97913.84;343334;28;1280;-68
2022/01/05 00:43:26;;;;;;;1.52;0.70;;;;;;;7.92;77.23;97916.38;343328;28;1038;-67
2022/01/05 00:43:39;;;;;;;0.98;0.68;;;;;;;7.92;76.98;97912.03;343378;28;2151;-69
2022/01/05 00:43:51;;;;;;;0.70;0.60;;;;;;;7.96;76.99;97912.72;342312;28;2066;-67
2022/01/05 00:44:03;;;;;;;0.80;0.70;;;;;;;7.89;77.09;97921.72;342574;28;2061;-67
2022/01/05 00:44:15;;;;;;;1.00;0.63;;;;;;;7.88;77.52;97920.84;342419;28;1038;-67
2022/01/05 00:44:27;;;;;;;0.93;0.60;;;;;;;7.83;77.62;97917.69;343061;28;1757;-68
2022/01/05 00:44:39;;;;;;;0.90;0.60;;;;;;;7.84;76.96;97916.75;343816;28;1051;-67
2022/01/05 00:44:51;;;;;;;0.88;0.50;;;;;;;7.90;77.35;97913.84;343942;28;1022;-67
2022/01/05 00:45:04;;;;;;;0.85;0.55;;;;;;;7.95;76.73;97911.06;343399;28;1621;-67
2022/01/05 00:45:16;;;;;;;0.63;0.60;;;;;;;7.92;76.86;97918.97;343829;28;1086;-67
2022/01/05 00:45:28;;;;;;;1.00;0.60;;;;;;;7.95;76.78;97911.91;343994;28;1168;-67
2022/01/05 00:45:41;;;;;;;0.90;0.63;;;;;;;7.94;76.44;97915.38;343751;28;1312;-67
2022/01/05 00:45:53;;;;;;;0.60;0.60;;;;;;;7.93;76.65;97918.91;343759;28;1018;-68
2022/01/05 00:46:06;;;;;;;0.70;0.63;;;;;;;7.96;76.34;97917.91;343603;28;1206;-67
2022/01/05 00:46:19;;;;;;;0.90;0.60;;;;;;;7.95;77.04;97922.25;343795;28;1147;-67
2022/01/05 00:46:31;;;;;;;0.75;0.40;;;;;;;7.96;76.45;97920.47;344034;28;1137;-68
2022/01/05 00:46:43;;;;;;;1.05;0.50;;;;;;;7.94;76.47;97920.56;343980;28;1030;-68
2022/01/05 00:46:55;;;;;;;0.95;0.50;;;;;;;7.94;76.96;97914.53;343748;28;1222;-67
2022/01/05 00:47:08;;;;;;;1.10;0.52;;;;;;;7.99;76.71;97923.75;343983;28;1220;-67
2022/01/05 00:47:20;;;;;;;1.50;0.60;;;;;;;7.96;76.54;97918.72;343471;28;2041;-69
2022/01/05 00:47:32;;;;;;;1.63;0.50;;;;;;;7.99;76.89;97918.59;343090;28;1483;-67
2022/01/05 00:47:44;;;;;;;1.45;0.50;;;;;;;7.96;76.28;97918.72;343617;28;1287;-67
2022/01/05 00:47:56;;;;;;;1.55;0.60;;;;;;;7.96;76.88;97918.72;343612;28;1267;-67
2022/01/05 00:48:30;;;;;;;1.42;0.60;;;;;;;7.92;76.60;97914.63;343554;28;1099;-67
2022/01/05 00:48:42;;;;;;;0.90;0.70;;;;;;;7.89;76.49;97914.78;343646;28;1171;-68
2022/01/05 00:48:54;;;;;;;1.77;0.80;;;;;;;7.83;76.95;97917.69;343691;28;1078;-68
2022/01/05 00:49:06;;;;;;;1.67;0.77;;;;;;;7.87;76.82;97914.03;343677;28;1152;-68
2022/01/05 00:49:18;;;;;;;1.50;0.73;;;;;;;7.92;76.76;97917.22;343687;28;1314;-68
2022/01/05 00:49:30;;;;;;;0.80;0.60;;;;;;;7.92;77.00;97912.03;343450;28;1042;-67
2022/01/05 00:49:42;;;;;;;0.80;0.50;;;;;;;7.95;76.69;97911.91;342404;28;1050;-68
2022/01/05 00:49:54;;;;;;;0.90;0.60;;;;;;;7.95;76.72;97911.06;342491;28;1807;-67
2022/01/05 00:50:07;;;;;;;0.93;0.70;;;;;;;7.98;76.77;97916.91;342582;28;1313;-67
2022/01/05 00:50:19;;;;;;;0.80;0.70;;;;;;;7.98;76.44;97911.72;342476;28;1047;-67
2022/01/05 00:50:31;;;;;;;0.80;0.60;;;;;;;7.99;76.61;97912.59;342503;28;1067;-67
2022/01/05 00:50:43;;;;;;;1.60;0.60;;;;;;;8.03;76.59;97902.91;342416;28;1305;-67
2022/01/05 00:50:58;;;;;;;1.98;0.60;;;;;;;8.11;76.17;97909.38;342359;28;1111;-67
2022/01/05 00:51:10;;;;;;;1.45;0.70;;;;;;;8.05;76.67;97911.41;343028;28;2173;-68
2022/01/05 00:51:22;;;;;;;1.00;0.70;;;;;;;8.07;76.78;97909.59;343903;28;1179;-67
2022/01/05 00:51:34;;;;;;;1.20;0.60;;;;;;;8.05;76.17;97904.50;343649;28;1059;-67
2022/01/05 00:51:46;;;;;;;1.10;0.60;;;;;;;8.05;76.46;97903.66;343929;28;2212;-67
2022/01/05 00:51:58;;;;;;;0.90;0.70;;;;;;;8.02;76.07;97904.66;343850;28;1607;-67
2022/01/05 00:52:10;;;;;;;0.90;0.70;;;;;;;8.00;76.02;97909.06;342914;28;2079;-67
2022/01/05 00:52:22;;;;;;;0.75;0.52;;;;;;;8.08;76.47;97913.88;343787;28;1242;-67
2022/01/05 00:52:34;;;;;;;1.13;0.50;;;;;;;8.09;76.19;97912.94;343811;28;1188;-67
2022/01/05 00:52:46;;;;;;;1.50;0.50;;;;;;;8.08;76.59;97908.69;343799;28;1209;-67
2022/01/05 00:53:00;;;;;;;1.27;0.60;;;;;;;8.08;76.69;97908.69;343631;28;1672;-67
2022/01/05 00:53:12;;;;;;;1.05;0.60;;;;;;;8.12;76.61;97912.78;342541;28;1242;-67
2022/01/05 00:53:28;;;;;;;0.90;0.50;;;;;;;8.09;76.34;97907.75;342477;28;1330;-67
2022/01/05 00:53:44;;;;;;;0.90;0.60;;;;;;;8.08;76.85;97912.09;342161;28;1011;-67
2022/01/05 00:53:56;;;;;;;0.73;0.60;;;;;;;8.07;76.72;97914.75;342809;28;1683;-68
2022/01/05 00:54:08;;;;;;;0.90;0.60;;;;;;;8.09;76.24;97907.75;342358;28;2355;-69
2022/01/05 00:54:20;;;;;;;1.30;0.60;;;;;;;8.09;76.50;97911.22;343134;28;1927;-68
2022/01/05 00:54:32;;;;;;;1.40;0.57;;;;;;;8.12;76.63;97905.03;342379;28;1052;-67
2022/01/05 00:54:45;;;;;;;0.95;0.57;;;;;;;8.11;77.06;97906.78;342423;28;1055;-68
2022/01/05 00:54:57;;;;;;;1.10;0.65;;;;;;;8.12;77.25;97907.63;343378;28;2071;-68
2022/01/05 00:55:10;;;;;;;1.10;0.70;;;;;;;8.17;76.86;97906.47;343868;28;1066;-68
2022/01/05 00:55:21;;;;;;;1.25;0.70;;;;;;;8.16;76.63;97907.38;343987;28;1287;-67
2022/01/05 00:55:34;;;;;;;1.38;0.70;;;;;;;8.12;75.85;97902.44;343870;28;1234;-67
2022/01/05 00:55:46;;;;;;;1.38;0.70;;;;;;;8.12;76.67;97905.03;343993;28;1391;-68
2022/01/05 00:55:58;;;;;;;0.93;0.68;;;;;;;8.02;76.20;97906.41;343127;28;2193;-67
2022/01/05 00:56:10;;;;;;;1.02;0.68;;;;;;;7.99;75.92;97902.22;342644;28;2346;-67
2022/01/05 00:56:22;;;;;;;0.88;0.68;;;;;;;8.00;76.43;97906.47;343717;28;1047;-68
2022/01/05 00:56:34;;;;;;;0.80;0.70;;;;;;;7.99;76.33;97908.25;343770;28;1059;-68
2022/01/05 00:56:46;;;;;;;0.70;0.63;;;;;;;7.93;76.40;97913.72;343695;28;1257;-67
2022/01/05 00:56:58;;;;;;;0.60;0.50;;;;;;;8.00;76.59;97915.06;343868;28;1564;-67
2022/01/05 00:57:10;;;;;;;0.60;0.50;;;;;;;7.97;77.21;97910.06;343948;28;1042;-68
2022/01/05 00:57:22;;;;;;;0.80;0.60;;;;;;;7.98;76.55;97909.13;343956;28;1019;-68
2022/01/05 00:57:34;;;;;;;0.98;0.60;;;;;;;7.91;76.37;97905.19;343157;28;2112;-67
2022/01/05 00:57:47;;;;;;;1.15;0.60;;;;;;;7.95;76.33;97911.91;343470;28;1713;-68
2022/01/05 00:57:59;;;;;;;1.00;0.65;;;;;;;7.98;76.86;97903.97;343495;28;1289;-67
2022/01/05 00:58:11;;;;;;;0.90;0.70;;;;;;;8.03;76.29;97905.47;342821;28;2358;-68
2022/01/05 00:58:23;;;;;;;1.02;0.70;;;;;;;8.05;76.35;97901.06;343795;28;1182;-67
2022/01/05 00:58:35;;;;;;;1.10;0.70;;;;;;;8.09;75.93;97900.00;343973;28;1111;-67
2022/01/05 00:58:47;;;;;;;1.00;0.70;;;;;;;8.06;76.43;97902.75;343891;28;1106;-67
2022/01/05 00:59:00;;;;;;;0.73;0.60;;;;;;;8.06;76.17;97900.16;343009;28;2215;-68
2022/01/05 00:59:12;;;;;;;0.88;0.68;;;;;;;8.07;75.53;97905.28;343751;28;1324;-67
2022/01/05 00:59:24;;;;;;;0.80;0.60;;;;;;;8.04;76.24;97902.00;343802;28;1074;-68
2022/01/05 00:59:37;;;;;;;1.08;0.70;;;;;;;8.05;75.94;97895.88;343966;28;1046;-68
2022/01/05 00:59:50;;;;;;;2.33;0.70;;;;;;;8.08;75.37;97900.94;343748;28;1283;-68
2022/01/05 01:00:04;;;;;;;2.20;0.60;;;;;;;8.05;75.84;97903.66;343705;28;1661;-68
2022/01/05 01:00:16;;;;;;;1.30;0.60;;;;;;;8.01;76.35;97910.75;343920;28;1074;-68
2022/01/05 01:00:28;;;;;;;1.73;0.60;;;;;;;8.04;76.13;97904.59;343918;28;976;-67
2022/01/05 01:00:40;;;;;;;1.40;0.52;;;;;;;8.08;76.15;97903.50;343691;28;1398;-67
2022/01/05 01:00:53;;;;;;;1.08;0.50;;;;;;;8.04;76.38;97904.59;343773;28;1093;-67